createdAt,value
2022-09-03T00:02:05.211Z,93660.28
2022-09-03T00:07:17.653Z,93676.22
2022-09-03T00:12:34.335Z,93701.44
2022-09-03T00:17:46.698Z,93701.75
2022-09-03T00:22:53.582Z,93703.75
2022-09-03T00:27:59.218Z,93714.06
2022-09-03T00:33:10.491Z,93702.34
2022-09-03T00:38:14.029Z,93708.41
2022-09-03T00:43:35.538Z,93702.06
2022-09-03T00:49:01.052Z,93710.16
2022-09-03T00:54:28.987Z,93705.38
2022-09-03T00:59:45.761Z,93704.75
2022-09-03T01:04:57.382Z,93715.44
2022-09-03T01:10:32.716Z,93723.03
2022-09-03T01:15:54.043Z,93723.44
2022-09-03T01:21:40.761Z,93711.19
2022-09-03T01:27:15.538Z,93725.13
2022-09-03T01:32:36.059Z,93720.38
2022-09-03T01:37:39.011Z,93718.31
2022-09-03T01:43:20.429Z,93729.03
2022-09-03T01:48:54.302Z,93738.34
2022-09-03T01:54:18.151Z,93737.72
2022-09-03T01:59:32.059Z,93728.47
2022-09-03T02:04:35.190Z,93738.97
2022-09-03T02:09:38.437Z,93729.63
2022-09-03T02:14:41.424Z,93720.78
2022-09-03T02:19:45.596Z,93729.38
2022-09-03T02:24:48.561Z,93705.78
2022-09-03T02:29:51.916Z,93735.25
2022-09-03T02:34:54.888Z,93732.16
2022-09-03T02:39:58.249Z,93726.91
2022-09-03T02:45:12.378Z,93732.81
2022-09-03T02:50:15.388Z,93729.97
2022-09-03T02:55:19.903Z,93728.91
2022-09-03T03:00:22.985Z,93741.38
2022-09-03T03:05:33.468Z,93755.53
2022-09-03T03:10:37.050Z,93751.69
2022-09-03T03:15:40.752Z,93746.16
2022-09-03T03:20:44.442Z,93739.66
2022-09-03T03:25:47.815Z,93728.28
2022-09-03T03:30:51.416Z,93735.09
2022-09-03T03:35:55.159Z,93727.25
2022-09-03T03:40:58.208Z,93744.75
2022-09-03T03:46:01.432Z,93737.47
2022-09-03T03:51:07.104Z,93741.25
2022-09-03T03:56:13.431Z,93738.41
2022-09-03T04:01:21.977Z,93744.50
2022-09-03T04:06:25.090Z,93747.13
2022-09-03T04:11:28.217Z,93762.06
2022-09-03T04:16:33.309Z,93741.75
2022-09-03T04:21:36.990Z,93748.66
2022-09-03T04:26:41.111Z,93749.66
2022-09-03T04:32:05.141Z,93762.72
2022-09-03T04:37:09.818Z,93754.38
2022-09-03T04:42:14.439Z,93747.75
2022-09-03T04:47:18.504Z,93761.25
2022-09-03T04:52:22.604Z,93754.91
2022-09-03T04:57:34.720Z,93756.81
2022-09-03T05:02:38.958Z,93773.22
2022-09-03T05:07:42.775Z,93770.81
2022-09-03T05:12:58.335Z,93767.81
2022-09-03T05:18:04.052Z,93784.47
2022-09-03T05:23:08.646Z,93782.06
2022-09-03T05:28:13.560Z,93774.53
2022-09-03T05:33:17.212Z,93775.69
2022-09-03T05:38:20.897Z,93795.19
2022-09-03T05:43:24.340Z,93789.38
2022-09-03T05:48:30.015Z,93796.97
2022-09-03T05:53:36.023Z,93788.13
2022-09-03T05:58:45.633Z,93781.16
2022-09-03T06:03:59.617Z,93778.38
2022-09-03T06:09:09.107Z,93786.69
2022-09-03T06:14:15.390Z,93779.88
2022-09-03T06:19:19.088Z,93752.25
2022-09-03T06:24:28.589Z,93775.75
2022-09-03T06:29:31.669Z,93780.63
2022-09-03T06:34:34.572Z,93778.50
2022-09-03T06:39:37.664Z,93796.31
2022-09-03T06:44:40.831Z,93813.00
2022-09-03T06:49:45.043Z,93776.75
2022-09-03T06:54:48.314Z,93802.00
2022-09-03T06:59:51.366Z,93800.84
2022-09-03T07:04:54.984Z,93801.13
2022-09-03T07:09:58.429Z,93802.25
2022-09-03T07:15:01.835Z,93790.72
2022-09-03T07:20:06.185Z,93790.06
2022-09-03T07:25:09.737Z,93793.31
2022-09-03T07:30:13.181Z,93794.38
2022-09-03T07:35:16.297Z,93788.81
2022-09-03T07:40:20.534Z,93804.44
2022-09-03T07:45:24.360Z,93819.25
2022-09-03T07:50:27.616Z,93831.25
2022-09-03T07:55:33.347Z,93836.56
2022-09-03T08:00:36.946Z,93833.31
2022-09-03T08:05:40.137Z,93829.31
2022-09-03T08:10:43.695Z,93826.41
2022-09-03T08:15:56.951Z,93841.56
2022-09-03T08:21:00.772Z,93849.81
2022-09-03T08:26:03.867Z,93847.06
2022-09-03T08:31:14.439Z,93863.00
2022-09-03T08:36:23.997Z,93868.13
2022-09-03T08:41:42.846Z,93870.63
2022-09-03T08:46:52.327Z,93868.56
2022-09-03T08:51:59.213Z,93860.66
2022-09-03T08:57:04.311Z,93874.31
2022-09-03T09:02:42.109Z,93866.00
2022-09-03T09:08:08.094Z,93868.78
2022-09-03T09:13:16.732Z,93873.22
2022-09-03T09:18:46.987Z,93882.19
2022-09-03T09:23:51.420Z,93865.03
2022-09-03T09:29:05.012Z,93862.91
2022-09-03T09:34:11.286Z,93872.44
2022-09-03T09:39:17.471Z,93875.56
2022-09-03T09:44:21.780Z,93881.19
2022-09-03T09:49:33.099Z,93885.28
2022-09-03T09:54:36.392Z,93875.81
2022-09-03T09:59:39.643Z,93868.78
2022-09-03T10:04:46.844Z,93890.72
2022-09-03T10:10:01.913Z,93889.16
2022-09-03T10:15:20.190Z,93878.06
2022-09-03T10:20:42.555Z,93867.28
2022-09-03T10:26:12.446Z,93868.28
2022-09-03T10:31:19.597Z,93858.34
2022-09-03T10:36:30.482Z,93841.41
2022-09-03T10:41:48.029Z,93845.56
2022-09-03T10:46:57.579Z,93852.00
2022-09-03T10:52:37.501Z,93863.78
2022-09-03T10:58:09.384Z,93854.13
2022-09-03T11:03:28.997Z,93866.47
2022-09-03T11:08:39.496Z,93870.63
2022-09-03T11:13:50.160Z,93870.63
2022-09-03T11:19:03.084Z,93861.84
2022-09-03T11:24:14.839Z,93869.84
2022-09-03T11:29:57.668Z,93883.66
2022-09-03T11:35:00.713Z,93889.16
2022-09-03T11:40:17.336Z,93873.81
2022-09-03T11:45:32.391Z,93889.94
2022-09-03T11:55:56.545Z,93885.84
2022-09-03T12:01:01.674Z,93885.44
2022-09-03T12:06:04.783Z,93891.19
2022-09-03T12:11:51.141Z,93886.00
2022-09-03T12:17:09.522Z,93883.22
2022-09-03T12:22:17.571Z,93864.97
2022-09-03T12:27:25.636Z,93872.19
2022-09-03T12:32:37.591Z,93871.00
2022-09-03T12:48:40.494Z,93847.50
2022-09-03T12:53:46.857Z,93841.66
2022-09-03T12:59:01.847Z,93826.75
2022-09-03T13:04:12.849Z,93835.28
2022-09-03T13:09:20.621Z,93833.66
2022-09-03T13:14:26.734Z,93832.09
2022-09-03T13:19:48.171Z,93823.59
2022-09-03T13:25:13.495Z,93836.75
2022-09-03T13:30:38.407Z,93833.16
2022-09-03T13:36:05.612Z,93829.53
2022-09-03T13:41:20.746Z,93824.38
2022-09-03T13:46:45.655Z,93822.88
2022-09-03T13:52:02.918Z,93815.63
2022-09-03T13:57:24.910Z,93820.44
2022-09-03T14:02:37.444Z,93814.91
2022-09-03T14:07:52.907Z,93815.94
2022-09-03T14:13:14.398Z,93824.69
2022-09-03T14:18:42.336Z,93828.53
2022-09-03T14:24:11.393Z,93814.09
2022-09-03T14:29:14.544Z,93819.69
2022-09-03T14:34:50.868Z,93821.63
2022-09-03T14:40:05.922Z,93829.56
2022-09-03T14:45:31.594Z,93815.56
2022-09-03T14:50:43.737Z,93816.56
2022-09-03T14:56:12.788Z,93819.22
2022-09-03T15:01:37.596Z,93815.41
2022-09-03T15:06:57.691Z,93815.91
2022-09-03T15:12:26.162Z,93826.03
2022-09-03T15:17:41.270Z,93831.22
2022-09-03T15:22:50.077Z,93817.09
2022-09-03T15:28:24.688Z,93820.13
2022-09-03T15:33:37.453Z,93826.72
2022-09-03T15:38:41.684Z,93820.72
2022-09-03T15:43:50.624Z,93809.91
2022-09-03T15:49:25.136Z,93839.31
2022-09-03T15:54:43.728Z,93845.47
2022-09-03T16:00:03.312Z,93837.94
2022-09-03T16:05:19.694Z,93841.59
2022-09-03T16:10:36.420Z,93841.88
2022-09-03T16:15:53.197Z,93857.28
2022-09-03T16:21:09.572Z,93854.59
2022-09-03T16:26:31.008Z,93847.13
2022-09-03T16:31:38.506Z,93849.06
2022-09-03T16:36:53.936Z,93847.00
2022-09-03T16:41:57.229Z,93845.38
2022-09-03T16:47:29.988Z,93837.22
2022-09-03T16:52:53.446Z,93845.03
2022-09-03T16:58:22.519Z,93846.56
2022-09-03T17:03:26.840Z,93848.69
2022-09-03T17:09:16.020Z,93850.94
2022-09-03T17:14:40.271Z,93855.16
2022-09-03T17:20:03.531Z,93858.09
2022-09-03T17:25:30.206Z,93859.63
2022-09-03T17:30:45.139Z,93862.41
2022-09-03T17:36:22.585Z,93869.19
2022-09-03T17:41:36.044Z,93868.56
2022-09-03T17:47:07.802Z,93869.00
2022-09-03T17:52:23.901Z,93878.72
2022-09-03T17:57:46.148Z,93877.41
2022-09-03T18:02:55.415Z,93885.28
2022-09-03T18:08:09.164Z,93885.59
2022-09-03T18:13:39.347Z,93881.53
2022-09-03T18:18:50.895Z,93894.47
2022-09-03T18:24:24.567Z,93891.69
2022-09-03T18:29:54.447Z,93897.69
2022-09-03T18:35:16.212Z,93906.34
2022-09-03T18:40:45.238Z,93888.78
2022-09-03T18:52:20.267Z,93901.78
2022-09-03T18:58:07.738Z,93910.41
2022-09-03T19:03:54.508Z,93903.09
2022-09-03T19:09:34.298Z,93917.16
2022-09-03T19:15:27.924Z,93923.22
2022-09-03T19:20:53.496Z,93931.97
2022-09-03T19:26:18.174Z,93937.38
2022-09-03T19:32:21.749Z,93939.16
2022-09-03T19:38:13.592Z,93936.16
2022-09-03T19:43:52.172Z,93930.34
2022-09-03T19:49:25.043Z,93942.53
2022-09-03T19:54:48.640Z,93944.69
2022-09-03T20:00:11.704Z,93942.41
2022-09-03T20:05:40.044Z,93932.06
2022-09-03T20:10:44.992Z,93940.59
2022-09-03T20:16:18.477Z,93944.63
2022-09-03T20:21:36.692Z,93933.97
2022-09-03T20:26:58.303Z,93937.53
2022-09-03T20:32:18.992Z,93937.69
2022-09-03T20:37:30.753Z,93938.50
2022-09-03T20:43:24.054Z,93932.47
2022-09-03T20:49:08.232Z,93942.03
2022-09-03T20:54:22.165Z,93923.56
2022-09-03T20:59:40.256Z,93949.06
2022-09-03T21:05:00.150Z,93941.16
2022-09-03T21:10:44.835Z,93933.91
2022-09-03T21:16:15.475Z,93929.09
2022-09-03T21:21:36.085Z,93930.56
2022-09-03T21:26:46.291Z,93915.94
2022-09-03T21:31:59.704Z,93921.34
2022-09-03T21:37:06.267Z,93910.56
2022-09-03T21:42:42.724Z,93916.59
2022-09-03T21:47:51.162Z,93912.22
2022-09-03T21:53:07.633Z,93908.22
2022-09-03T21:58:47.505Z,93919.28
2022-09-03T22:03:50.469Z,93918.44
2022-09-03T22:09:07.672Z,93922.09
2022-09-03T22:14:14.244Z,93916.59
2022-09-03T22:19:17.516Z,93921.19
2022-09-03T22:24:45.500Z,93918.84
2022-09-03T22:29:56.873Z,93899.59
2022-09-03T22:35:25.537Z,93909.97
2022-09-03T22:40:52.475Z,93900.84
2022-09-03T22:46:10.597Z,93901.28
2022-09-03T22:51:13.846Z,93902.44
2022-09-03T22:56:22.852Z,93860.00
2022-09-03T23:01:43.818Z,93884.63
2022-09-03T23:06:53.627Z,93903.78
2022-09-03T23:12:02.961Z,93893.56
2022-09-03T23:17:13.706Z,93897.31
2022-09-03T23:22:28.056Z,93896.22
2022-09-03T23:27:46.600Z,93897.78
2022-09-03T23:32:55.581Z,93901.81
2022-09-03T23:38:09.326Z,93905.19
2022-09-03T23:43:38.760Z,93904.00
2022-09-03T23:49:09.279Z,93898.38
2022-09-03T23:54:37.778Z,93902.81
2022-09-03T23:59:43.705Z,93895.19
